sensor_id;sensor_type;location;lat;lon;timestamp;temperature;humidity
76878;DHT22;65843;50.692;12.844;2023-06-19T00:00:58;16.80;72.60
76878;DHT22;65843;50.692;12.844;2023-06-19T00:01:59;16.80;72.60
76878;DHT22;65843;50.692;12.844;2023-06-19T00:03:00;16.80;72.60
76878;DHT22;65843;50.692;12.844;2023-06-19T00:04:01;16.80;72.70
76878;DHT22;65843;50.692;12.844;2023-06-19T00:05:02;16.80;72.70
76878;DHT22;65843;50.692;12.844;2023-06-19T00:06:03;16.70;72.70
76878;DHT22;65843;50.692;12.844;2023-06-19T00:07:03;16.80;72.70
76878;DHT22;65843;50.692;12.844;2023-06-19T00:08:05;16.70;72.80
76878;DHT22;65843;50.692;12.844;2023-06-19T00:09:07;16.80;72.90
76878;DHT22;65843;50.692;12.844;2023-06-19T00:10:08;16.80;72.80
76878;DHT22;65843;50.692;12.844;2023-06-19T00:11:09;16.80;72.80
76878;DHT22;65843;50.692;12.844;2023-06-19T00:12:09;16.80;72.80
76878;DHT22;65843;50.692;12.844;2023-06-19T00:13:12;16.80;72.70
76878;DHT22;65843;50.692;12.844;2023-06-19T00:14:12;16.80;72.70
76878;DHT22;65843;50.692;12.844;2023-06-19T00:15:13;16.80;72.60
76878;DHT22;65843;50.692;12.844;2023-06-19T00:16:14;16.80;72.60
76878;DHT22;65843;50.692;12.844;2023-06-19T00:17:15;16.80;72.60
76878;DHT22;65843;50.692;12.844;2023-06-19T00:18:17;16.80;72.60
76878;DHT22;65843;50.692;12.844;2023-06-19T00:19:20;16.80;72.50
76878;DHT22;65843;50.692;12.844;2023-06-19T00:20:21;16.80;72.50
76878;DHT22;65843;50.692;12.844;2023-06-19T00:21:22;16.80;72.60
76878;DHT22;65843;50.692;12.844;2023-06-19T00:22:26;16.80;72.50
76878;DHT22;65843;50.692;12.844;2023-06-19T00:23:27;16.80;72.50
76878;DHT22;65843;50.692;12.844;2023-06-19T00:24:28;16.80;72.50
76878;DHT22;65843;50.692;12.844;2023-06-19T00:25:29;16.80;72.60
76878;DHT22;65843;50.692;12.844;2023-06-19T00:26:29;16.80;72.50
76878;DHT22;65843;50.692;12.844;2023-06-19T00:27:30;16.80;72.50
76878;DHT22;65843;50.692;12.844;2023-06-19T00:28:31;16.80;72.50
76878;DHT22;65843;50.692;12.844;2023-06-19T00:29:32;16.80;72.60
76878;DHT22;65843;50.692;12.844;2023-06-19T00:30:33;16.80;72.60
76878;DHT22;65843;50.692;12.844;2023-06-19T00:31:34;16.80;72.50
76878;DHT22;65843;50.692;12.844;2023-06-19T00:32:37;16.80;72.60
76878;DHT22;65843;50.692;12.844;2023-06-19T00:33:46;16.80;72.50
76878;DHT22;65843;50.692;12.844;2023-06-19T00:34:51;16.80;72.70
76878;DHT22;65843;50.692;12.844;2023-06-19T00:35:52;16.80;72.70
76878;DHT22;65843;50.692;12.844;2023-06-19T00:36:52;16.80;72.70
76878;DHT22;65843;50.692;12.844;2023-06-19T00:37:56;16.80;72.80
76878;DHT22;65843;50.692;12.844;2023-06-19T00:39:01;16.80;72.80
76878;DHT22;65843;50.692;12.844;2023-06-19T00:40:03;16.80;72.80
76878;DHT22;65843;50.692;12.844;2023-06-19T00:41:04;16.80;72.80
76878;DHT22;65843;50.692;12.844;2023-06-19T00:42:06;16.80;72.80
76878;DHT22;65843;50.692;12.844;2023-06-19T00:43:06;16.80;72.90
76878;DHT22;65843;50.692;12.844;2023-06-19T00:44:07;16.80;72.90
76878;DHT22;65843;50.692;12.844;2023-06-19T00:45:08;16.80;72.90
76878;DHT22;65843;50.692;12.844;2023-06-19T00:46:09;16.80;72.90
76878;DHT22;65843;50.692;12.844;2023-06-19T00:47:11;16.80;72.90
76878;DHT22;65843;50.692;12.844;2023-06-19T00:48:12;16.80;72.90
76878;DHT22;65843;50.692;12.844;2023-06-19T00:49:13;16.80;72.90
76878;DHT22;65843;50.692;12.844;2023-06-19T00:50:15;16.80;72.90
76878;DHT22;65843;50.692;12.844;2023-06-19T00:51:15;16.80;72.90
76878;DHT22;65843;50.692;12.844;2023-06-19T00:52:16;16.80;72.80
76878;DHT22;65843;50.692;12.844;2023-06-19T00:53:18;16.80;72.80
76878;DHT22;65843;50.692;12.844;2023-06-19T00:54:20;16.80;72.80
76878;DHT22;65843;50.692;12.844;2023-06-19T00:55:21;16.80;72.80
76878;DHT22;65843;50.692;12.844;2023-06-19T00:56:22;16.80;72.80
76878;DHT22;65843;50.692;12.844;2023-06-19T00:57:23;16.80;72.80
76878;DHT22;65843;50.692;12.844;2023-06-19T00:58:24;16.80;72.70
76878;DHT22;65843;50.692;12.844;2023-06-19T00:59:25;16.80;72.80
76878;DHT22;65843;50.692;12.844;2023-06-19T01:00:26;16.80;72.70
76878;DHT22;65843;50.692;12.844;2023-06-19T01:01:27;16.80;72.80
76878;DHT22;65843;50.692;12.844;2023-06-19T01:02:28;16.80;72.80
76878;DHT22;65843;50.692;12.844;2023-06-19T01:03:29;16.80;72.80
76878;DHT22;65843;50.692;12.844;2023-06-19T01:04:30;16.80;72.80
76878;DHT22;65843;50.692;12.844;2023-06-19T01:05:31;16.80;72.80
76878;DHT22;65843;50.692;12.844;2023-06-19T01:06:36;16.80;72.70
76878;DHT22;65843;50.692;12.844;2023-06-19T01:08:49;16.80;72.90
76878;DHT22;65843;50.692;12.844;2023-06-19T01:09:51;16.80;72.90
76878;DHT22;65843;50.692;12.844;2023-06-19T01:10:54;16.80;72.90
76878;DHT22;65843;50.692;12.844;2023-06-19T01:11:58;16.80;73.00
76878;DHT22;65843;50.692;12.844;2023-06-19T01:13:06;16.80;73.00
76878;DHT22;65843;50.692;12.844;2023-06-19T01:14:08;16.80;73.00
76878;DHT22;65843;50.692;12.844;2023-06-19T01:15:10;16.80;73.00
76878;DHT22;65843;50.692;12.844;2023-06-19T01:16:11;16.80;73.00
76878;DHT22;65843;50.692;12.844;2023-06-19T01:17:12;16.80;73.00
76878;DHT22;65843;50.692;12.844;2023-06-19T01:18:14;16.80;73.00
76878;DHT22;65843;50.692;12.844;2023-06-19T01:19:17;16.80;73.00
76878;DHT22;65843;50.692;12.844;2023-06-19T01:20:18;16.80;73.00
76878;DHT22;65843;50.692;12.844;2023-06-19T01:21:19;16.80;73.00
76878;DHT22;65843;50.692;12.844;2023-06-19T01:22:38;16.80;72.90
76878;DHT22;65843;50.692;12.844;2023-06-19T01:23:39;16.80;72.90
76878;DHT22;65843;50.692;12.844;2023-06-19T01:24:40;16.80;72.90
76878;DHT22;65843;50.692;12.844;2023-06-19T01:25:41;16.80;72.90
76878;DHT22;65843;50.692;12.844;2023-06-19T01:26:42;16.80;72.90
76878;DHT22;65843;50.692;12.844;2023-06-19T01:27:46;16.80;72.80
76878;DHT22;65843;50.692;12.844;2023-06-19T01:28:47;16.80;72.80
76878;DHT22;65843;50.692;12.844;2023-06-19T01:29:48;16.80;72.90
76878;DHT22;65843;50.692;12.844;2023-06-19T01:30:50;16.80;72.80
76878;DHT22;65843;50.692;12.844;2023-06-19T01:34:11;16.80;72.80
76878;DHT22;65843;50.692;12.844;2023-06-19T01:35:12;16.80;72.80
76878;DHT22;65843;50.692;12.844;2023-06-19T01:36:14;16.80;72.80
76878;DHT22;65843;50.692;12.844;2023-06-19T01:37:16;16.80;72.80
76878;DHT22;65843;50.692;12.844;2023-06-19T01:38:17;16.80;72.80
76878;DHT22;65843;50.692;12.844;2023-06-19T01:39:20;16.80;72.80
76878;DHT22;65843;50.692;12.844;2023-06-19T01:40:21;16.80;72.80
76878;DHT22;65843;50.692;12.844;2023-06-19T01:41:26;16.80;72.70
76878;DHT22;65843;50.692;12.844;2023-06-19T01:42:28;16.80;72.70
76878;DHT22;65843;50.692;12.844;2023-06-19T01:43:29;16.80;72.80
76878;DHT22;65843;50.692;12.844;2023-06-19T01:44:31;16.80;72.80
76878;DHT22;65843;50.692;12.844;2023-06-19T01:45:33;16.80;72.80
76878;DHT22;65843;50.692;12.844;2023-06-19T01:46:34;16.80;72.90
76878;DHT22;65843;50.692;12.844;2023-06-19T01:47:35;16.80;73.10
76878;DHT22;65843;50.692;12.844;2023-06-19T01:48:37;16.70;73.10
76878;DHT22;65843;50.692;12.844;2023-06-19T01:49:38;16.80;73.00
76878;DHT22;65843;50.692;12.844;2023-06-19T01:50:39;16.80;73.10
76878;DHT22;65843;50.692;12.844;2023-06-19T01:51:40;16.80;73.10
76878;DHT22;65843;50.692;12.844;2023-06-19T01:52:41;16.80;73.10
76878;DHT22;65843;50.692;12.844;2023-06-19T01:53:42;16.80;73.10
76878;DHT22;65843;50.692;12.844;2023-06-19T01:54:43;16.80;73.00
76878;DHT22;65843;50.692;12.844;2023-06-19T01:55:44;16.80;73.00
76878;DHT22;65843;50.692;12.844;2023-06-19T01:56:45;16.80;73.00
76878;DHT22;65843;50.692;12.844;2023-06-19T01:57:46;16.80;72.90
76878;DHT22;65843;50.692;12.844;2023-06-19T01:58:46;16.80;73.00
76878;DHT22;65843;50.692;12.844;2023-06-19T01:59:47;16.80;72.90
76878;DHT22;65843;50.692;12.844;2023-06-19T02:00:48;16.80;72.90
76878;DHT22;65843;50.692;12.844;2023-06-19T02:01:49;16.80;72.90
76878;DHT22;65843;50.692;12.844;2023-06-19T02:02:50;16.80;72.90
76878;DHT22;65843;50.692;12.844;2023-06-19T02:03:51;16.80;72.90
76878;DHT22;65843;50.692;12.844;2023-06-19T02:04:52;16.80;72.90
76878;DHT22;65843;50.692;12.844;2023-06-19T02:05:53;16.80;72.90
76878;DHT22;65843;50.692;12.844;2023-06-19T02:06:54;16.80;72.80
76878;DHT22;65843;50.692;12.844;2023-06-19T02:07:55;16.80;72.90
76878;DHT22;65843;50.692;12.844;2023-06-19T02:08:55;16.80;72.90
76878;DHT22;65843;50.692;12.844;2023-06-19T02:09:57;16.80;72.90
76878;DHT22;65843;50.692;12.844;2023-06-19T02:10:57;16.80;72.90
76878;DHT22;65843;50.692;12.844;2023-06-19T02:11:58;16.80;72.90
76878;DHT22;65843;50.692;12.844;2023-06-19T02:12:59;16.80;72.90
76878;DHT22;65843;50.692;12.844;2023-06-19T02:14:00;16.80;72.90
76878;DHT22;65843;50.692;12.844;2023-06-19T02:15:01;16.80;72.90
76878;DHT22;65843;50.692;12.844;2023-06-19T02:16:02;16.80;72.90
76878;DHT22;65843;50.692;12.844;2023-06-19T02:17:03;16.80;72.80
76878;DHT22;65843;50.692;12.844;2023-06-19T02:18:04;16.80;72.90
76878;DHT22;65843;50.692;12.844;2023-06-19T02:19:06;16.80;72.80
76878;DHT22;65843;50.692;12.844;2023-06-19T02:20:07;16.80;72.90
76878;DHT22;65843;50.692;12.844;2023-06-19T02:21:09;16.80;72.90
76878;DHT22;65843;50.692;12.844;2023-06-19T02:22:10;16.80;72.90
76878;DHT22;65843;50.692;12.844;2023-06-19T02:23:11;16.80;72.90
76878;DHT22;65843;50.692;12.844;2023-06-19T02:24:12;16.80;72.90
76878;DHT22;65843;50.692;12.844;2023-06-19T02:25:12;16.80;73.00
76878;DHT22;65843;50.692;12.844;2023-06-19T02:26:14;16.80;73.00
76878;DHT22;65843;50.692;12.844;2023-06-19T02:27:14;16.80;73.00
76878;DHT22;65843;50.692;12.844;2023-06-19T02:28:16;16.80;73.00
76878;DHT22;65843;50.692;12.844;2023-06-19T02:29:17;16.80;73.00
76878;DHT22;65843;50.692;12.844;2023-06-19T02:30:18;16.80;73.00
76878;DHT22;65843;50.692;12.844;2023-06-19T02:31:19;16.80;73.00
76878;DHT22;65843;50.692;12.844;2023-06-19T02:32:20;16.80;72.90
76878;DHT22;65843;50.692;12.844;2023-06-19T02:33:20;16.80;73.00
76878;DHT22;65843;50.692;12.844;2023-06-19T02:34:21;16.80;72.90
76878;DHT22;65843;50.692;12.844;2023-06-19T02:35:24;16.80;72.90
76878;DHT22;65843;50.692;12.844;2023-06-19T02:36:25;16.80;72.90
76878;DHT22;65843;50.692;12.844;2023-06-19T02:37:26;16.80;73.00
76878;DHT22;65843;50.692;12.844;2023-06-19T02:38:27;16.80;73.00
76878;DHT22;65843;50.692;12.844;2023-06-19T02:39:30;16.90;73.00
76878;DHT22;65843;50.692;12.844;2023-06-19T02:40:31;16.80;73.00
76878;DHT22;65843;50.692;12.844;2023-06-19T02:41:32;16.90;73.10
76878;DHT22;65843;50.692;12.844;2023-06-19T02:42:33;16.80;73.00
76878;DHT22;65843;50.692;12.844;2023-06-19T02:43:34;16.90;72.90
76878;DHT22;65843;50.692;12.844;2023-06-19T02:44:35;16.90;72.80
76878;DHT22;65843;50.692;12.844;2023-06-19T02:45:36;16.90;72.80
76878;DHT22;65843;50.692;12.844;2023-06-19T02:46:36;16.90;72.70
76878;DHT22;65843;50.692;12.844;2023-06-19T02:47:37;16.90;72.50
76878;DHT22;65843;50.692;12.844;2023-06-19T02:48:38;16.90;72.40
76878;DHT22;65843;50.692;12.844;2023-06-19T02:49:39;16.90;72.40
76878;DHT22;65843;50.692;12.844;2023-06-19T02:50:40;16.90;72.40
76878;DHT22;65843;50.692;12.844;2023-06-19T02:51:41;16.90;72.40
76878;DHT22;65843;50.692;12.844;2023-06-19T02:52:42;16.90;72.30
76878;DHT22;65843;50.692;12.844;2023-06-19T02:53:42;16.90;72.40
76878;DHT22;65843;50.692;12.844;2023-06-19T02:54:44;16.90;72.50
76878;DHT22;65843;50.692;12.844;2023-06-19T02:55:45;16.90;72.50
76878;DHT22;65843;50.692;12.844;2023-06-19T02:56:46;16.90;72.60
76878;DHT22;65843;50.692;12.844;2023-06-19T02:57:47;16.90;72.60
76878;DHT22;65843;50.692;12.844;2023-06-19T02:58:48;16.90;72.60
76878;DHT22;65843;50.692;12.844;2023-06-19T02:59:49;16.90;72.60
76878;DHT22;65843;50.692;12.844;2023-06-19T03:00:50;16.90;72.50
76878;DHT22;65843;50.692;12.844;2023-06-19T03:01:51;16.90;72.20
76878;DHT22;65843;50.692;12.844;2023-06-19T03:02:52;17.00;72.10
76878;DHT22;65843;50.692;12.844;2023-06-19T03:03:54;17.00;72.00
76878;DHT22;65843;50.692;12.844;2023-06-19T03:04:54;17.00;72.10
76878;DHT22;65843;50.692;12.844;2023-06-19T03:05:55;17.00;72.10
76878;DHT22;65843;50.692;12.844;2023-06-19T03:06:56;17.00;72.00
76878;DHT22;65843;50.692;12.844;2023-06-19T03:07:57;17.00;72.00
76878;DHT22;65843;50.692;12.844;2023-06-19T03:08:58;17.00;72.00
76878;DHT22;65843;50.692;12.844;2023-06-19T03:10:00;17.00;72.10
76878;DHT22;65843;50.692;12.844;2023-06-19T03:11:00;17.00;72.10
76878;DHT22;65843;50.692;12.844;2023-06-19T03:12:01;17.00;72.20
76878;DHT22;65843;50.692;12.844;2023-06-19T03:13:02;17.00;72.20
76878;DHT22;65843;50.692;12.844;2023-06-19T03:14:03;17.00;72.10
76878;DHT22;65843;50.692;12.844;2023-06-19T03:15:07;17.00;72.20
76878;DHT22;65843;50.692;12.844;2023-06-19T03:16:08;17.00;72.10
76878;DHT22;65843;50.692;12.844;2023-06-19T03:17:09;17.00;72.10
76878;DHT22;65843;50.692;12.844;2023-06-19T03:18:10;17.00;72.10
76878;DHT22;65843;50.692;12.844;2023-06-19T03:19:11;17.00;72.10
76878;DHT22;65843;50.692;12.844;2023-06-19T03:20:12;17.00;72.10
76878;DHT22;65843;50.692;12.844;2023-06-19T03:21:13;17.00;72.10
76878;DHT22;65843;50.692;12.844;2023-06-19T03:22:14;17.00;72.10
76878;DHT22;65843;50.692;12.844;2023-06-19T03:23:15;17.00;72.10
76878;DHT22;65843;50.692;12.844;2023-06-19T03:24:16;17.00;72.20
76878;DHT22;65843;50.692;12.844;2023-06-19T03:25:17;17.00;72.20
76878;DHT22;65843;50.692;12.844;2023-06-19T03:26:20;17.00;72.20
76878;DHT22;65843;50.692;12.844;2023-06-19T03:27:21;17.00;72.30
76878;DHT22;65843;50.692;12.844;2023-06-19T03:28:22;16.90;72.50
76878;DHT22;65843;50.692;12.844;2023-06-19T03:29:23;16.90;72.50
76878;DHT22;65843;50.692;12.844;2023-06-19T03:30:24;16.90;72.60
76878;DHT22;65843;50.692;12.844;2023-06-19T03:31:25;16.90;72.60
76878;DHT22;65843;50.692;12.844;2023-06-19T03:32:26;16.90;72.70
76878;DHT22;65843;50.692;12.844;2023-06-19T03:33:27;17.00;72.70
76878;DHT22;65843;50.692;12.844;2023-06-19T03:34:27;17.00;72.80
76878;DHT22;65843;50.692;12.844;2023-06-19T03:35:28;17.00;72.80
76878;DHT22;65843;50.692;12.844;2023-06-19T03:36:29;17.00;72.70
76878;DHT22;65843;50.692;12.844;2023-06-19T03:37:30;17.00;72.80
76878;DHT22;65843;50.692;12.844;2023-06-19T03:38:33;17.00;72.70
76878;DHT22;65843;50.692;12.844;2023-06-19T03:39:34;17.00;72.70
76878;DHT22;65843;50.692;12.844;2023-06-19T03:40:34;16.90;72.70
76878;DHT22;65843;50.692;12.844;2023-06-19T03:41:35;17.00;72.70
76878;DHT22;65843;50.692;12.844;2023-06-19T03:42:36;17.00;72.60
76878;DHT22;65843;50.692;12.844;2023-06-19T03:43:37;17.00;72.60
76878;DHT22;65843;50.692;12.844;2023-06-19T03:44:38;17.00;72.60
76878;DHT22;65843;50.692;12.844;2023-06-19T03:45:39;17.00;72.60
76878;DHT22;65843;50.692;12.844;2023-06-19T03:46:40;17.00;72.70
76878;DHT22;65843;50.692;12.844;2023-06-19T03:47:41;16.90;72.50
76878;DHT22;65843;50.692;12.844;2023-06-19T03:48:42;17.00;72.60
76878;DHT22;65843;50.692;12.844;2023-06-19T03:49:42;17.00;72.60
76878;DHT22;65843;50.692;12.844;2023-06-19T03:50:43;16.90;72.50
76878;DHT22;65843;50.692;12.844;2023-06-19T03:51:44;16.90;72.60
76878;DHT22;65843;50.692;12.844;2023-06-19T03:52:45;16.90;72.60
76878;DHT22;65843;50.692;12.844;2023-06-19T03:53:46;16.90;72.60
76878;DHT22;65843;50.692;12.844;2023-06-19T03:54:47;16.90;72.60
76878;DHT22;65843;50.692;12.844;2023-06-19T03:55:48;16.90;72.70
76878;DHT22;65843;50.692;12.844;2023-06-19T03:56:49;16.90;72.70
76878;DHT22;65843;50.692;12.844;2023-06-19T03:57:49;16.90;72.70
76878;DHT22;65843;50.692;12.844;2023-06-19T03:58:50;16.90;72.80
76878;DHT22;65843;50.692;12.844;2023-06-19T03:59:51;16.90;72.80
76878;DHT22;65843;50.692;12.844;2023-06-19T04:00:54;16.90;72.80
76878;DHT22;65843;50.692;12.844;2023-06-19T04:01:55;16.90;72.80
76878;DHT22;65843;50.692;12.844;2023-06-19T04:02:56;16.90;72.70
76878;DHT22;65843;50.692;12.844;2023-06-19T04:03:57;16.90;72.70
76878;DHT22;65843;50.692;12.844;2023-06-19T04:04:58;16.90;72.80
76878;DHT22;65843;50.692;12.844;2023-06-19T04:05:59;16.90;72.80
76878;DHT22;65843;50.692;12.844;2023-06-19T04:06:59;16.90;72.90
76878;DHT22;65843;50.692;12.844;2023-06-19T04:08:00;16.90;73.00
76878;DHT22;65843;50.692;12.844;2023-06-19T04:09:01;16.90;73.10
76878;DHT22;65843;50.692;12.844;2023-06-19T04:10:02;16.90;73.00
76878;DHT22;65843;50.692;12.844;2023-06-19T04:11:03;16.90;73.20
76878;DHT22;65843;50.692;12.844;2023-06-19T04:12:04;16.90;73.20
76878;DHT22;65843;50.692;12.844;2023-06-19T04:13:05;16.90;73.10
76878;DHT22;65843;50.692;12.844;2023-06-19T04:14:07;16.90;73.20
76878;DHT22;65843;50.692;12.844;2023-06-19T04:15:08;16.90;73.20
76878;DHT22;65843;50.692;12.844;2023-06-19T04:16:09;16.90;73.20
76878;DHT22;65843;50.692;12.844;2023-06-19T04:17:10;16.90;73.20
76878;DHT22;65843;50.692;12.844;2023-06-19T04:18:11;16.90;73.10
76878;DHT22;65843;50.692;12.844;2023-06-19T04:19:12;16.90;73.10
76878;DHT22;65843;50.692;12.844;2023-06-19T04:20:12;17.00;73.20
76878;DHT22;65843;50.692;12.844;2023-06-19T04:21:14;16.90;73.20
76878;DHT22;65843;50.692;12.844;2023-06-19T04:22:15;16.90;73.10
76878;DHT22;65843;50.692;12.844;2023-06-19T04:23:16;16.90;73.10
76878;DHT22;65843;50.692;12.844;2023-06-19T04:24:17;16.90;73.20
76878;DHT22;65843;50.692;12.844;2023-06-19T04:25:19;16.90;73.20
76878;DHT22;65843;50.692;12.844;2023-06-19T04:26:20;16.90;73.20
76878;DHT22;65843;50.692;12.844;2023-06-19T04:27:22;16.90;73.30
76878;DHT22;65843;50.692;12.844;2023-06-19T04:28:23;16.90;73.20
76878;DHT22;65843;50.692;12.844;2023-06-19T04:29:23;16.90;73.20
76878;DHT22;65843;50.692;12.844;2023-06-19T04:30:24;17.00;73.20
76878;DHT22;65843;50.692;12.844;2023-06-19T04:31:25;16.90;73.20
76878;DHT22;65843;50.692;12.844;2023-06-19T04:32:27;17.00;73.20
76878;DHT22;65843;50.692;12.844;2023-06-19T04:33:28;17.00;73.10
76878;DHT22;65843;50.692;12.844;2023-06-19T04:34:29;17.00;73.20
76878;DHT22;65843;50.692;12.844;2023-06-19T04:35:30;17.00;73.20
76878;DHT22;65843;50.692;12.844;2023-06-19T04:36:31;17.00;73.20
76878;DHT22;65843;50.692;12.844;2023-06-19T04:37:32;17.00;73.20
76878;DHT22;65843;50.692;12.844;2023-06-19T04:38:33;17.00;73.10
76878;DHT22;65843;50.692;12.844;2023-06-19T04:39:34;16.90;73.00
76878;DHT22;65843;50.692;12.844;2023-06-19T04:40:35;16.90;73.10
76878;DHT22;65843;50.692;12.844;2023-06-19T04:41:36;17.00;73.20
76878;DHT22;65843;50.692;12.844;2023-06-19T04:42:39;16.90;73.20
76878;DHT22;65843;50.692;12.844;2023-06-19T04:43:39;16.90;73.20
76878;DHT22;65843;50.692;12.844;2023-06-19T04:44:42;16.90;73.40
76878;DHT22;65843;50.692;12.844;2023-06-19T04:45:43;16.90;73.30
76878;DHT22;65843;50.692;12.844;2023-06-19T04:46:44;16.90;73.40
76878;DHT22;65843;50.692;12.844;2023-06-19T04:47:44;16.90;73.50
76878;DHT22;65843;50.692;12.844;2023-06-19T04:48:46;16.90;73.50
76878;DHT22;65843;50.692;12.844;2023-06-19T04:49:51;16.90;73.60
76878;DHT22;65843;50.692;12.844;2023-06-19T04:50:52;17.00;73.60
76878;DHT22;65843;50.692;12.844;2023-06-19T04:51:53;17.00;73.50
76878;DHT22;65843;50.692;12.844;2023-06-19T04:52:54;16.90;73.50
76878;DHT22;65843;50.692;12.844;2023-06-19T04:53:55;17.00;73.40
76878;DHT22;65843;50.692;12.844;2023-06-19T04:54:55;16.90;73.50
76878;DHT22;65843;50.692;12.844;2023-06-19T04:55:56;17.00;73.40
76878;DHT22;65843;50.692;12.844;2023-06-19T04:56:57;17.00;73.40
76878;DHT22;65843;50.692;12.844;2023-06-19T04:57:58;17.00;73.40
76878;DHT22;65843;50.692;12.844;2023-06-19T04:58:59;17.00;73.50
76878;DHT22;65843;50.692;12.844;2023-06-19T05:00:02;17.00;73.50
76878;DHT22;65843;50.692;12.844;2023-06-19T05:01:03;17.00;73.40
76878;DHT22;65843;50.692;12.844;2023-06-19T05:02:04;17.00;73.60
76878;DHT22;65843;50.692;12.844;2023-06-19T05:03:05;16.90;73.60
76878;DHT22;65843;50.692;12.844;2023-06-19T05:04:06;17.00;73.60
76878;DHT22;65843;50.692;12.844;2023-06-19T05:05:07;17.00;73.60
76878;DHT22;65843;50.692;12.844;2023-06-19T05:06:08;17.00;73.60
76878;DHT22;65843;50.692;12.844;2023-06-19T05:07:09;17.00;73.80
76878;DHT22;65843;50.692;12.844;2023-06-19T05:08:12;17.00;73.80
76878;DHT22;65843;50.692;12.844;2023-06-19T05:09:13;17.00;73.90
76878;DHT22;65843;50.692;12.844;2023-06-19T05:10:14;17.00;73.70
76878;DHT22;65843;50.692;12.844;2023-06-19T05:11:15;17.00;73.70
76878;DHT22;65843;50.692;12.844;2023-06-19T05:12:16;17.00;73.70
76878;DHT22;65843;50.692;12.844;2023-06-19T05:13:17;17.00;73.70
76878;DHT22;65843;50.692;12.844;2023-06-19T05:14:19;17.00;73.60
76878;DHT22;65843;50.692;12.844;2023-06-19T05:15:19;17.00;73.50
76878;DHT22;65843;50.692;12.844;2023-06-19T05:16:20;17.00;73.50
76878;DHT22;65843;50.692;12.844;2023-06-19T05:17:23;17.00;73.40
76878;DHT22;65843;50.692;12.844;2023-06-19T05:18:24;17.00;73.50
76878;DHT22;65843;50.692;12.844;2023-06-19T05:19:25;17.00;73.70
76878;DHT22;65843;50.692;12.844;2023-06-19T05:20:26;17.00;73.70
76878;DHT22;65843;50.692;12.844;2023-06-19T05:21:27;17.00;73.70
76878;DHT22;65843;50.692;12.844;2023-06-19T05:22:28;17.00;73.80
76878;DHT22;65843;50.692;12.844;2023-06-19T05:23:29;17.00;73.80
76878;DHT22;65843;50.692;12.844;2023-06-19T05:24:29;17.00;73.90
76878;DHT22;65843;50.692;12.844;2023-06-19T05:25:30;17.00;74.00
76878;DHT22;65843;50.692;12.844;2023-06-19T05:26:31;17.00;74.10
76878;DHT22;65843;50.692;12.844;2023-06-19T05:27:32;17.00;74.10
76878;DHT22;65843;50.692;12.844;2023-06-19T05:28:33;17.00;74.20
76878;DHT22;65843;50.692;12.844;2023-06-19T05:29:34;17.00;74.30
76878;DHT22;65843;50.692;12.844;2023-06-19T05:30:35;17.00;74.40
76878;DHT22;65843;50.692;12.844;2023-06-19T05:31:36;17.00;74.20
76878;DHT22;65843;50.692;12.844;2023-06-19T05:32:37;17.00;74.10
76878;DHT22;65843;50.692;12.844;2023-06-19T05:33:38;17.00;74.00
76878;DHT22;65843;50.692;12.844;2023-06-19T05:34:39;17.00;74.00
76878;DHT22;65843;50.692;12.844;2023-06-19T05:35:40;17.00;74.10
76878;DHT22;65843;50.692;12.844;2023-06-19T05:36:40;17.00;74.10
76878;DHT22;65843;50.692;12.844;2023-06-19T05:37:41;17.00;74.00
76878;DHT22;65843;50.692;12.844;2023-06-19T05:38:44;17.00;74.40
76878;DHT22;65843;50.692;12.844;2023-06-19T05:39:45;17.00;74.40
76878;DHT22;65843;50.692;12.844;2023-06-19T05:40:46;17.00;74.40
76878;DHT22;65843;50.692;12.844;2023-06-19T05:41:46;17.00;74.40
76878;DHT22;65843;50.692;12.844;2023-06-19T05:42:47;17.00;74.50
76878;DHT22;65843;50.692;12.844;2023-06-19T05:43:48;17.00;74.30
76878;DHT22;65843;50.692;12.844;2023-06-19T05:44:49;17.00;74.40
76878;DHT22;65843;50.692;12.844;2023-06-19T05:45:50;17.00;74.30
76878;DHT22;65843;50.692;12.844;2023-06-19T05:46:51;17.00;74.40
76878;DHT22;65843;50.692;12.844;2023-06-19T05:47:52;17.00;74.50
76878;DHT22;65843;50.692;12.844;2023-06-19T05:48:53;17.00;74.50
76878;DHT22;65843;50.692;12.844;2023-06-19T05:49:55;17.00;74.30
76878;DHT22;65843;50.692;12.844;2023-06-19T05:50:56;17.00;74.00
76878;DHT22;65843;50.692;12.844;2023-06-19T05:51:57;17.00;73.80
76878;DHT22;65843;50.692;12.844;2023-06-19T05:53:01;17.10;73.90
76878;DHT22;65843;50.692;12.844;2023-06-19T05:54:02;17.00;74.00
76878;DHT22;65843;50.692;12.844;2023-06-19T05:55:04;17.00;73.80
76878;DHT22;65843;50.692;12.844;2023-06-19T05:56:05;17.00;74.00
76878;DHT22;65843;50.692;12.844;2023-06-19T05:57:06;17.10;74.10
76878;DHT22;65843;50.692;12.844;2023-06-19T05:58:07;17.00;74.10
76878;DHT22;65843;50.692;12.844;2023-06-19T05:59:08;17.00;74.20
76878;DHT22;65843;50.692;12.844;2023-06-19T06:00:09;17.10;74.20
76878;DHT22;65843;50.692;12.844;2023-06-19T06:01:14;17.00;74.10
76878;DHT22;65843;50.692;12.844;2023-06-19T06:02:16;17.00;74.00
76878;DHT22;65843;50.692;12.844;2023-06-19T06:03:17;17.00;74.00
76878;DHT22;65843;50.692;12.844;2023-06-19T06:04:18;17.10;73.90
76878;DHT22;65843;50.692;12.844;2023-06-19T06:05:22;17.00;73.80
76878;DHT22;65843;50.692;12.844;2023-06-19T06:06:25;17.00;73.90
76878;DHT22;65843;50.692;12.844;2023-06-19T06:07:26;17.00;73.80
76878;DHT22;65843;50.692;12.844;2023-06-19T06:08:29;17.00;73.80
76878;DHT22;65843;50.692;12.844;2023-06-19T06:09:30;17.00;73.90
76878;DHT22;65843;50.692;12.844;2023-06-19T06:10:31;17.00;73.80
76878;DHT22;65843;50.692;12.844;2023-06-19T06:11:32;17.00;73.80
76878;DHT22;65843;50.692;12.844;2023-06-19T06:12:33;17.00;73.70
76878;DHT22;65843;50.692;12.844;2023-06-19T06:13:35;17.00;73.70
76878;DHT22;65843;50.692;12.844;2023-06-19T06:14:36;17.00;73.70
76878;DHT22;65843;50.692;12.844;2023-06-19T06:15:37;17.00;73.60
76878;DHT22;65843;50.692;12.844;2023-06-19T06:16:38;17.00;73.70
76878;DHT22;65843;50.692;12.844;2023-06-19T06:17:39;17.00;73.60
76878;DHT22;65843;50.692;12.844;2023-06-19T06:18:39;17.00;73.60
76878;DHT22;65843;50.692;12.844;2023-06-19T06:19:40;17.00;73.60
76878;DHT22;65843;50.692;12.844;2023-06-19T06:20:41;17.00;73.70
76878;DHT22;65843;50.692;12.844;2023-06-19T06:21:42;17.00;73.70
76878;DHT22;65843;50.692;12.844;2023-06-19T06:22:43;17.00;73.80
76878;DHT22;65843;50.692;12.844;2023-06-19T06:23:44;17.00;73.80
76878;DHT22;65843;50.692;12.844;2023-06-19T06:24:45;17.00;73.70